Airport View

Enter AWOS ICAO identifier for current METAR.

ex. KFNL

KOPF 221753Z 09008KT 10SM SCT040 BKN048 32/23 A3000 RMK AO2 LTG DSNT W SLP159 T03220228 10333 20278 57016

22 Jul 2019 18:23

Other Area AWOS: KHWO - KMIA - KFLL - KTMB

TAF KOPF 221720Z 2218/2318 09010KT P6SM SCT030 BKN120 FM230100 VRB05KT P6SM VCSH SCT030 BKN120 FM231400 23007KT P6SM VCSH SCT025 BKN100 FM231700 20010KT P6SM VCSH SCT025 SCT060 BKN250